createdAt,value
2022-08-30T00:02:11.969Z,13.00
2022-08-30T00:04:39.360Z,12.35
2022-08-30T00:07:06.604Z,12.50
2022-08-30T00:09:33.877Z,12.93
2022-08-30T00:12:01.321Z,13.40
2022-08-30T00:14:28.501Z,11.95
2022-08-30T00:16:56.012Z,13.23
2022-08-30T00:19:23.169Z,12.88
2022-08-30T00:21:50.361Z,14.18
2022-08-30T00:24:17.620Z,13.68
2022-08-30T00:26:44.812Z,12.93
2022-08-30T00:29:11.962Z,12.88
2022-08-30T00:31:39.188Z,12.77
2022-08-30T00:34:07.302Z,14.18
2022-08-30T00:36:34.470Z,12.95
2022-08-30T00:39:01.796Z,12.10
2022-08-30T00:41:29.073Z,13.35
2022-08-30T00:43:57.091Z,12.40
2022-08-30T00:46:24.740Z,12.50
2022-08-30T00:48:52.765Z,13.48
2022-08-30T00:51:21.453Z,12.57
2022-08-30T00:53:55.005Z,12.55
2022-08-30T00:56:22.878Z,12.73
2022-08-30T00:58:51.798Z,13.43
2022-08-30T01:01:19.961Z,12.77
2022-08-30T01:03:47.411Z,13.45
2022-08-30T01:06:15.868Z,13.00
2022-08-30T01:08:43.772Z,13.15
2022-08-30T01:11:12.332Z,13.27
2022-08-30T01:13:40.669Z,13.32
2022-08-30T01:16:08.827Z,13.20
2022-08-30T01:18:37.154Z,12.35
2022-08-30T01:21:25.690Z,12.75
2022-08-30T01:23:54.080Z,11.73
2022-08-30T01:26:21.970Z,12.48
2022-08-30T01:28:51.417Z,12.20
2022-08-30T01:31:19.016Z,12.27
2022-08-30T01:33:46.269Z,13.40
2022-08-30T01:36:14.589Z,12.23
2022-08-30T01:38:55.381Z,12.15
2022-08-30T01:41:27.041Z,13.10
2022-08-30T01:43:55.809Z,12.93
2022-08-30T01:46:24.550Z,12.50
2022-08-30T01:48:53.908Z,12.20
2022-08-30T01:51:21.888Z,13.02
2022-08-30T01:53:49.059Z,13.75
2022-08-30T01:56:16.852Z,13.07
2022-08-30T01:58:44.431Z,12.82
2022-08-30T02:01:12.790Z,12.88
2022-08-30T02:03:41.346Z,13.25
2022-08-30T02:06:09.864Z,13.90
2022-08-30T02:08:37.422Z,13.75
2022-08-30T02:11:06.583Z,13.32
2022-08-30T02:13:34.433Z,13.48
2022-08-30T02:16:01.600Z,13.93
2022-08-30T02:18:28.944Z,14.50
2022-08-30T02:20:56.110Z,13.95
2022-08-30T02:23:23.270Z,14.57
2022-08-30T02:25:50.579Z,14.60
2022-08-30T02:28:19.763Z,14.48
2022-08-30T02:30:47.812Z,14.02
2022-08-30T02:33:15.495Z,13.63
2022-08-30T02:35:42.733Z,14.57
2022-08-30T02:38:10.086Z,15.15
2022-08-30T02:40:37.488Z,14.07
2022-08-30T02:43:07.272Z,14.48
2022-08-30T02:45:34.700Z,15.98
2022-08-30T02:48:02.073Z,15.18
2022-08-30T02:50:29.301Z,14.73
2022-08-30T02:52:56.518Z,16.00
2022-08-30T02:55:23.909Z,15.48
2022-08-30T02:57:51.125Z,16.27
2022-08-30T03:00:19.660Z,15.75
2022-08-30T03:02:47.478Z,16.83
2022-08-30T03:05:16.082Z,16.05
2022-08-30T03:07:43.660Z,17.00
2022-08-30T03:10:11.281Z,17.70
2022-08-30T03:12:41.507Z,16.70
2022-08-30T03:15:10.160Z,16.80
2022-08-30T03:17:37.474Z,16.95
2022-08-30T03:20:05.081Z,17.58
2022-08-30T03:22:32.238Z,18.73
2022-08-30T03:25:01.558Z,17.92
2022-08-30T03:27:29.260Z,17.75
2022-08-30T03:29:56.409Z,17.88
2022-08-30T03:32:24.175Z,18.38
2022-08-30T03:34:51.382Z,17.70
2022-08-30T03:37:23.234Z,17.67
2022-08-30T03:39:52.872Z,16.85
2022-08-30T03:42:20.094Z,18.40
2022-08-30T03:44:48.701Z,18.30
2022-08-30T03:47:16.193Z,18.23
2022-08-30T03:49:43.461Z,18.92
2022-08-30T03:52:10.614Z,18.67
2022-08-30T03:54:38.759Z,19.50
2022-08-30T03:57:06.317Z,19.90
2022-08-30T03:59:33.636Z,18.75
2022-08-30T04:02:01.036Z,19.65
2022-08-30T04:04:28.260Z,19.58
2022-08-30T04:06:55.473Z,20.15
2022-08-30T04:09:22.767Z,20.55
2022-08-30T04:11:50.846Z,20.40
2022-08-30T04:14:18.289Z,20.00
2022-08-30T04:16:45.818Z,20.80
2022-08-30T04:19:13.182Z,20.45
2022-08-30T04:21:42.829Z,20.08
2022-08-30T04:24:10.750Z,21.13
2022-08-30T04:26:38.142Z,20.23
2022-08-30T04:29:05.677Z,19.50
2022-08-30T04:31:32.990Z,20.33
2022-08-30T04:34:00.233Z,19.45
2022-08-30T04:36:27.448Z,18.67
2022-08-30T04:38:54.742Z,18.88
2022-08-30T04:41:24.329Z,18.40
2022-08-30T04:43:51.596Z,18.35
2022-08-30T04:46:20.032Z,18.02
2022-08-30T04:48:47.520Z,18.13
2022-08-30T04:51:16.845Z,17.52
2022-08-30T04:53:44.389Z,17.02
2022-08-30T04:56:12.999Z,16.70
2022-08-30T04:58:40.174Z,15.75
2022-08-30T05:01:12.419Z,16.15
2022-08-30T05:03:41.393Z,15.20
2022-08-30T05:06:08.765Z,14.00
2022-08-30T05:08:36.075Z,12.95
2022-08-30T05:11:04.674Z,13.48
2022-08-30T05:13:35.133Z,14.95
2022-08-30T05:16:05.007Z,13.35
2022-08-30T05:18:32.293Z,13.52
2022-08-30T05:21:09.805Z,12.57
2022-08-30T05:23:37.452Z,11.98
2022-08-30T05:26:08.625Z,11.60
2022-08-30T05:28:36.227Z,11.13
2022-08-30T05:31:04.055Z,10.32
2022-08-30T05:33:31.614Z,10.38
2022-08-30T05:36:09.317Z,9.73
2022-08-30T05:38:36.583Z,10.35
2022-08-30T05:41:08.275Z,9.43
2022-08-30T05:43:38.858Z,9.20
2022-08-30T05:46:07.989Z,9.45
2022-08-30T05:48:35.611Z,8.85
2022-08-30T05:51:04.056Z,8.52
2022-08-30T05:53:31.262Z,8.88
2022-08-30T05:56:01.998Z,8.50
2022-08-30T06:00:56.443Z,7.53
2022-08-30T06:03:23.718Z,7.97
2022-08-30T06:05:51.928Z,7.57
2022-08-30T06:08:19.147Z,8.25
2022-08-30T06:10:46.457Z,7.60
2022-08-30T06:13:14.613Z,7.10
2022-08-30T06:15:43.861Z,7.47
2022-08-30T06:18:11.415Z,7.57
2022-08-30T06:20:43.163Z,7.35
2022-08-30T06:23:11.198Z,7.28
2022-08-30T06:25:41.239Z,6.80
2022-08-30T06:28:09.771Z,6.88
2022-08-30T06:30:37.036Z,7.40
2022-08-30T06:33:04.220Z,7.40
2022-08-30T06:35:38.122Z,7.13
2022-08-30T06:38:09.535Z,7.95
2022-08-30T06:40:37.458Z,6.95
2022-08-30T06:43:04.646Z,7.68
2022-08-30T06:45:31.828Z,7.22
2022-08-30T06:47:59.773Z,7.38
2022-08-30T06:50:26.984Z,7.28
2022-08-30T06:52:54.380Z,7.10
2022-08-30T06:57:51.410Z,7.18
2022-08-30T07:00:18.792Z,7.45
2022-08-30T07:02:46.209Z,7.60
2022-08-30T07:05:18.543Z,6.40
2022-08-30T07:07:46.260Z,6.13
2022-08-30T07:10:14.753Z,5.20
2022-08-30T07:12:42.221Z,5.55
2022-08-30T07:15:09.812Z,5.47
2022-08-30T07:17:55.886Z,5.75
2022-08-30T07:20:23.306Z,5.82
2022-08-30T07:22:50.528Z,5.93
2022-08-30T07:25:19.897Z,5.38
2022-08-30T07:27:47.527Z,5.53
2022-08-30T07:30:14.714Z,5.50
2022-08-30T07:32:41.981Z,5.40
2022-08-30T07:35:09.592Z,6.40
2022-08-30T07:37:36.976Z,5.55
2022-08-30T07:40:05.181Z,5.68
2022-08-30T07:42:32.671Z,5.60
2022-08-30T07:44:59.879Z,6.07
2022-08-30T07:47:27.099Z,5.38
2022-08-30T07:49:54.339Z,5.28
2022-08-30T07:52:21.501Z,6.32
2022-08-30T07:54:48.689Z,5.30
2022-08-30T07:57:20.193Z,4.93
2022-08-30T07:59:47.339Z,4.80
2022-08-30T08:02:14.570Z,5.45
2022-08-30T08:04:41.847Z,4.90
2022-08-30T08:07:09.034Z,4.75
2022-08-30T08:09:37.564Z,4.53
2022-08-30T08:12:05.710Z,4.72
2022-08-30T08:14:33.057Z,4.55
2022-08-30T08:17:00.437Z,4.55
2022-08-30T08:19:27.768Z,4.45
2022-08-30T08:22:19.603Z,4.90
2022-08-30T08:24:44.207Z,4.65
2022-08-30T08:27:11.366Z,4.22
2022-08-30T08:29:38.641Z,4.53
2022-08-30T08:32:06.127Z,4.40
2022-08-30T08:34:33.297Z,4.05
2022-08-30T08:37:00.453Z,4.30
2022-08-30T08:39:27.836Z,4.45
2022-08-30T08:42:01.320Z,4.68
2022-08-30T08:44:38.206Z,4.15
2022-08-30T08:47:05.399Z,3.80
2022-08-30T08:49:36.486Z,4.18
2022-08-30T08:54:56.316Z,3.60
2022-08-30T08:57:26.681Z,4.00
2022-08-30T08:59:55.042Z,3.80
2022-08-30T09:02:27.138Z,3.55
2022-08-30T09:04:56.171Z,4.40
2022-08-30T09:07:25.286Z,4.53
2022-08-30T09:09:53.211Z,4.15
2022-08-30T09:12:22.391Z,4.15
2022-08-30T09:14:55.432Z,4.10
2022-08-30T09:17:23.077Z,4.40
2022-08-30T09:19:54.052Z,4.55
2022-08-30T09:22:26.746Z,3.35
2022-08-30T09:25:01.917Z,4.25
2022-08-30T09:27:34.069Z,3.70
2022-08-30T09:30:03.165Z,3.72
2022-08-30T09:32:35.806Z,4.05
2022-08-30T09:35:04.454Z,3.88
2022-08-30T09:37:33.972Z,3.35
2022-08-30T09:40:01.611Z,3.30
2022-08-30T09:42:30.994Z,3.15
2022-08-30T09:45:10.605Z,3.72
2022-08-30T09:47:42.450Z,3.38
2022-08-30T09:50:31.224Z,3.15
2022-08-30T09:53:09.962Z,3.20
2022-08-30T09:55:37.179Z,3.45
2022-08-30T09:58:04.352Z,3.40
2022-08-30T10:00:34.241Z,3.65
2022-08-30T10:05:58.152Z,3.65
2022-08-30T10:08:33.438Z,3.40
2022-08-30T10:11:00.583Z,3.28
2022-08-30T10:13:28.684Z,3.15
2022-08-30T10:16:01.970Z,3.53
2022-08-30T10:18:34.704Z,3.63
2022-08-30T10:21:19.184Z,3.78
2022-08-30T10:23:49.086Z,5.38
2022-08-30T10:26:30.001Z,3.90
2022-08-30T10:29:21.678Z,3.05
2022-08-30T10:31:52.573Z,4.32
2022-08-30T10:34:28.359Z,3.08
2022-08-30T10:37:08.032Z,3.60
2022-08-30T10:39:40.187Z,4.17
2022-08-30T10:42:12.265Z,4.15
2022-08-30T10:44:41.225Z,3.25
2022-08-30T10:47:11.681Z,3.33
2022-08-30T10:49:45.472Z,3.33
2022-08-30T10:52:13.204Z,3.03
2022-08-30T10:55:18.977Z,3.20
2022-08-30T10:57:46.453Z,3.40
2022-08-30T11:00:15.448Z,3.10
2022-08-30T11:02:43.840Z,2.72
2022-08-30T11:05:23.066Z,3.10
2022-08-30T11:07:52.957Z,3.28
2022-08-30T11:10:26.465Z,3.42
2022-08-30T11:12:56.746Z,3.15
2022-08-30T11:15:25.911Z,3.22
2022-08-30T11:18:03.728Z,3.13
2022-08-30T11:20:37.775Z,3.20
2022-08-30T11:23:07.740Z,3.72
2022-08-30T11:25:58.240Z,3.10
2022-08-30T11:30:53.101Z,2.90
2022-08-30T11:33:31.917Z,3.17
2022-08-30T11:35:59.329Z,3.25
2022-08-30T11:38:26.459Z,3.00
2022-08-30T11:40:56.873Z,3.15
2022-08-30T11:43:36.564Z,3.40
2022-08-30T11:46:24.383Z,2.80
2022-08-30T11:49:15.070Z,3.10
2022-08-30T11:52:26.225Z,2.90
2022-08-30T11:54:44.234Z,2.88
2022-08-30T11:57:37.839Z,2.95
2022-08-30T12:00:09.489Z,3.03
2022-08-30T12:02:52.179Z,2.50
2022-08-30T12:05:40.893Z,3.10
2022-08-30T12:08:09.895Z,2.90
2022-08-30T12:10:42.009Z,2.60
2022-08-30T12:13:10.768Z,3.33
2022-08-30T12:15:58.122Z,3.10
2022-08-30T12:18:28.460Z,3.75
2022-08-30T12:20:59.090Z,3.63
2022-08-30T12:23:34.539Z,2.67
2022-08-30T12:26:20.248Z,2.80
2022-08-30T12:28:49.766Z,2.65
2022-08-30T12:31:20.003Z,2.58
2022-08-30T12:33:48.969Z,2.90
2022-08-30T12:36:33.638Z,2.65
2022-08-30T12:39:08.136Z,2.72
2022-08-30T12:41:36.723Z,2.83
2022-08-30T12:44:14.502Z,2.65
2022-08-30T12:46:42.796Z,2.55
2022-08-30T12:49:10.441Z,3.13
2022-08-30T12:51:42.616Z,3.00
2022-08-30T12:54:12.724Z,2.63
2022-08-30T12:56:51.215Z,2.90
2022-08-30T12:59:37.318Z,2.95
2022-08-30T13:02:24.368Z,2.58
2022-08-30T13:04:52.233Z,2.80
2022-08-30T13:07:26.817Z,2.70
2022-08-30T13:10:06.271Z,2.53
2022-08-30T13:12:36.122Z,2.25
2022-08-30T13:15:18.453Z,2.53
2022-08-30T13:17:47.781Z,2.50
2022-08-30T13:20:18.060Z,2.50
2022-08-30T13:23:03.718Z,2.80
2022-08-30T13:25:32.767Z,2.80
2022-08-30T13:28:00.725Z,2.90
2022-08-30T13:30:28.110Z,3.35
2022-08-30T13:32:55.406Z,2.58
2022-08-30T13:35:22.600Z,2.80
2022-08-30T13:37:51.433Z,2.47
2022-08-30T13:40:19.688Z,2.58
2022-08-30T13:42:47.207Z,2.70
2022-08-30T13:48:02.558Z,3.03
2022-08-30T13:50:30.490Z,2.92
2022-08-30T13:52:57.936Z,2.65
2022-08-30T13:55:25.308Z,2.78
2022-08-30T13:57:54.788Z,2.45
2022-08-30T14:00:22.466Z,2.60
2022-08-30T14:02:56.142Z,2.65
2022-08-30T14:11:02.580Z,2.47
2022-08-30T14:13:29.829Z,2.83
2022-08-30T14:18:45.430Z,2.50
2022-08-30T14:21:12.566Z,2.80
2022-08-30T14:23:39.694Z,2.50
2022-08-30T14:26:12.069Z,2.70
2022-08-30T14:28:39.285Z,2.80
2022-08-30T14:31:06.562Z,2.92
2022-08-30T14:33:34.060Z,3.20
2022-08-30T14:36:01.190Z,2.45
2022-08-30T14:38:28.361Z,2.80
2022-08-30T14:40:55.657Z,2.58
2022-08-30T14:43:22.888Z,2.50
2022-08-30T14:45:51.083Z,2.85
2022-08-30T14:48:18.454Z,2.72
2022-08-30T14:50:46.953Z,2.92
2022-08-30T14:53:14.128Z,2.78
2022-08-30T14:55:42.628Z,2.60
2022-08-30T14:58:11.209Z,2.90
2022-08-30T15:00:39.083Z,3.13
2022-08-30T15:03:06.774Z,2.10
2022-08-30T15:05:33.949Z,2.38
2022-08-30T15:08:01.094Z,2.63
2022-08-30T15:10:28.369Z,2.47
2022-08-30T15:12:55.581Z,2.60
2022-08-30T15:15:23.024Z,2.63
2022-08-30T15:17:50.652Z,2.33
2022-08-30T15:20:21.129Z,2.47
2022-08-30T15:22:48.464Z,2.78
2022-08-30T15:25:15.711Z,2.78
2022-08-30T15:27:44.236Z,2.63
2022-08-30T15:30:12.866Z,2.60
2022-08-30T15:35:09.543Z,2.33
2022-08-30T15:37:37.591Z,2.50
2022-08-30T15:40:06.828Z,2.60
2022-08-30T15:42:34.072Z,2.70
2022-08-30T15:45:01.276Z,2.40
2022-08-30T15:47:28.525Z,2.50
2022-08-30T15:49:56.813Z,3.50
2022-08-30T15:52:24.500Z,2.83
2022-08-30T15:54:51.835Z,2.80
2022-08-30T15:57:19.342Z,2.75
2022-08-30T15:59:46.645Z,2.80
2022-08-30T16:02:13.888Z,2.63
2022-08-30T16:04:43.901Z,2.97
2022-08-30T16:07:11.137Z,2.60
2022-08-30T16:09:38.735Z,2.80
2022-08-30T16:12:08.096Z,2.67
2022-08-30T16:14:37.140Z,2.85
2022-08-30T16:17:05.004Z,2.63
2022-08-30T16:19:32.402Z,2.80
2022-08-30T16:21:59.652Z,2.70
2022-08-30T16:24:27.291Z,2.72
2022-08-30T16:26:54.742Z,2.65
2022-08-30T16:29:21.946Z,3.15
2022-08-30T16:31:49.752Z,3.20
2022-08-30T16:34:20.567Z,3.10
2022-08-30T16:36:47.795Z,2.85
2022-08-30T16:39:15.909Z,2.88
2022-08-30T16:41:45.472Z,3.08
2022-08-30T16:44:13.604Z,3.20
2022-08-30T16:46:43.281Z,3.28
2022-08-30T16:49:19.722Z,3.72
2022-08-30T16:51:47.075Z,3.15
2022-08-30T16:54:14.278Z,3.75
2022-08-30T16:56:41.424Z,3.75
2022-08-30T16:59:11.405Z,3.53
2022-08-30T17:01:39.260Z,3.80
2022-08-30T17:04:08.066Z,3.42
2022-08-30T17:06:35.722Z,3.72
2022-08-30T17:09:03.305Z,3.97
2022-08-30T17:11:30.456Z,3.72
2022-08-30T17:13:57.787Z,3.58
2022-08-30T17:16:27.916Z,3.78
2022-08-30T17:18:56.190Z,3.80
2022-08-30T17:21:27.349Z,3.85
2022-08-30T17:23:54.501Z,3.58
2022-08-30T17:26:28.920Z,3.65
2022-08-30T17:28:56.100Z,3.90
2022-08-30T17:31:24.610Z,4.00
2022-08-30T17:33:52.215Z,4.75
2022-08-30T17:36:19.522Z,3.80
2022-08-30T17:38:48.162Z,4.60
2022-08-30T17:41:16.402Z,4.13
2022-08-30T17:43:44.400Z,4.15
2022-08-30T17:46:18.394Z,4.93
2022-08-30T17:48:46.005Z,4.20
2022-08-30T17:51:14.398Z,4.45
2022-08-30T17:53:41.633Z,4.80
2022-08-30T17:56:10.922Z,4.30
2022-08-30T17:58:38.142Z,4.40
2022-08-30T18:01:11.576Z,4.07
2022-08-30T18:03:39.266Z,4.53
2022-08-30T18:06:07.166Z,4.30
2022-08-30T18:08:34.742Z,4.30
2022-08-30T18:11:03.836Z,4.32
2022-08-30T18:13:33.645Z,4.20
2022-08-30T18:16:02.797Z,4.85
2022-08-30T18:18:30.376Z,4.28
2022-08-30T18:20:57.770Z,4.13
2022-08-30T18:23:25.056Z,4.25
2022-08-30T18:25:59.909Z,4.30
2022-08-30T18:28:28.309Z,4.15
2022-08-30T18:30:56.819Z,4.28
2022-08-30T18:33:25.060Z,5.00
2022-08-30T18:35:52.570Z,4.55
2022-08-30T18:38:23.793Z,5.18
2022-08-30T18:40:51.405Z,4.10
2022-08-30T18:43:18.701Z,4.47
2022-08-30T18:45:58.322Z,4.25
2022-08-30T18:48:27.275Z,5.28
2022-08-30T18:50:54.682Z,4.40
2022-08-30T18:53:28.640Z,4.60
2022-08-30T18:55:56.858Z,5.20
2022-08-30T18:58:24.190Z,6.80
2022-08-30T19:00:51.474Z,9.60
2022-08-30T19:03:19.031Z,8.75
2022-08-30T19:05:46.464Z,10.82
2022-08-30T19:08:14.165Z,7.57
2022-08-30T19:10:41.534Z,5.70
2022-08-30T19:13:10.403Z,6.47
2022-08-30T19:15:37.766Z,7.65
2022-08-30T19:18:07.430Z,12.05
2022-08-30T19:20:45.029Z,14.80
2022-08-30T19:23:12.341Z,12.25
2022-08-30T19:25:42.824Z,12.13
2022-08-30T19:28:10.800Z,12.98
2022-08-30T19:30:37.977Z,18.45
2022-08-30T19:33:05.733Z,12.75
2022-08-30T19:35:33.866Z,14.23
2022-08-30T19:38:01.040Z,13.38
2022-08-30T19:40:28.604Z,8.68
2022-08-30T19:42:56.058Z,7.55
2022-08-30T19:45:23.355Z,6.75
2022-08-30T19:47:51.178Z,6.63
2022-08-30T19:50:18.980Z,6.60
2022-08-30T19:52:52.698Z,6.45
2022-08-30T19:55:23.873Z,6.70
2022-08-30T19:57:56.114Z,7.13
2022-08-30T20:00:23.653Z,6.63
2022-08-30T20:02:51.255Z,7.45
2022-08-30T20:05:18.824Z,7.13
2022-08-30T20:07:46.240Z,8.00
2022-08-30T20:10:15.523Z,7.82
2022-08-30T20:12:44.976Z,7.85
2022-08-30T20:15:15.050Z,7.32
2022-08-30T20:18:02.620Z,7.75
2022-08-30T20:20:30.666Z,7.88
2022-08-30T20:22:57.881Z,7.32
2022-08-30T20:25:25.177Z,7.30
2022-08-30T20:27:52.564Z,7.28
2022-08-30T20:30:19.817Z,7.63
2022-08-30T20:32:47.099Z,7.57
2022-08-30T20:35:17.994Z,6.93
2022-08-30T20:40:15.589Z,6.68
2022-08-30T20:42:45.777Z,7.05
2022-08-30T20:45:14.210Z,7.00
2022-08-30T20:47:42.811Z,6.80
2022-08-30T20:50:13.656Z,7.05
2022-08-30T20:52:41.453Z,6.40
2022-08-30T20:55:09.273Z,6.78
2022-08-30T20:57:36.550Z,6.32
2022-08-30T21:00:04.787Z,7.10
2022-08-30T21:02:33.604Z,6.72
2022-08-30T21:05:00.995Z,6.68
2022-08-30T21:07:28.177Z,6.72
2022-08-30T21:09:56.737Z,6.47
2022-08-30T21:12:24.393Z,6.88
2022-08-30T21:14:51.670Z,6.82
2022-08-30T21:17:18.984Z,6.82
2022-08-30T21:19:46.474Z,6.80
2022-08-30T21:22:13.697Z,5.70
2022-08-30T21:24:40.886Z,6.80
2022-08-30T21:27:08.272Z,6.93
2022-08-30T21:29:35.451Z,6.53
2022-08-30T21:32:02.694Z,6.47
2022-08-30T21:34:29.991Z,5.95
2022-08-30T21:36:57.151Z,6.65
2022-08-30T21:39:26.274Z,6.40
2022-08-30T21:41:57.050Z,6.30
2022-08-30T21:44:26.018Z,6.47
2022-08-30T21:46:53.988Z,5.68
2022-08-30T21:49:22.768Z,5.90
2022-08-30T21:51:50.878Z,5.72
2022-08-30T21:54:18.519Z,5.35
2022-08-30T21:56:46.701Z,5.53
2022-08-30T21:59:14.624Z,5.40
2022-08-30T22:01:43.183Z,5.13
2022-08-30T22:04:11.107Z,5.55
2022-08-30T22:06:39.331Z,4.70
2022-08-30T22:09:07.759Z,5.55
2022-08-30T22:11:35.191Z,6.38
2022-08-30T22:14:02.937Z,6.03
2022-08-30T22:16:30.867Z,6.75
2022-08-30T22:18:58.472Z,7.40
2022-08-30T22:21:28.588Z,6.97
2022-08-30T22:23:56.863Z,6.35
2022-08-30T22:26:24.482Z,7.00
2022-08-30T22:28:52.720Z,6.28
2022-08-30T22:31:20.284Z,6.28
2022-08-30T22:33:48.092Z,6.65
2022-08-30T22:36:16.851Z,6.20
2022-08-30T22:38:44.086Z,6.18
2022-08-30T22:41:12.397Z,5.53
2022-08-30T22:43:39.569Z,5.47
2022-08-30T22:46:07.323Z,5.53
2022-08-30T22:48:35.801Z,5.25
2022-08-30T22:51:03.400Z,5.15
2022-08-30T22:53:30.575Z,4.25
2022-08-30T22:55:57.953Z,4.78
2022-08-30T22:58:25.526Z,4.28
2022-08-30T23:00:54.828Z,4.55
2022-08-30T23:03:22.698Z,4.03
2022-08-30T23:05:49.841Z,4.03
2022-08-30T23:08:17.027Z,5.00
2022-08-30T23:10:44.530Z,5.47
2022-08-30T23:13:11.979Z,6.13
2022-08-30T23:15:39.179Z,6.10
2022-08-30T23:18:06.876Z,7.72
2022-08-30T23:20:34.361Z,9.82
2022-08-30T23:23:01.533Z,9.82
2022-08-30T23:25:51.886Z,9.18
2022-08-30T23:28:38.442Z,8.52
2022-08-30T23:31:31.801Z,9.48
2022-08-30T23:34:17.604Z,9.40
2022-08-30T23:37:04.173Z,9.63
2022-08-30T23:39:50.029Z,9.63
2022-08-30T23:42:36.026Z,9.48
2022-08-30T23:45:22.014Z,9.90
2022-08-30T23:48:08.076Z,8.52
2022-08-30T23:50:54.199Z,8.10
2022-08-30T23:53:43.826Z,7.97
2022-08-30T23:56:30.769Z,6.50
2022-08-30T23:59:16.980Z,6.20
